createdAt,value
2023-02-26T00:01:45.498Z,3.27
2023-02-26T00:04:13.947Z,3.17
2023-02-26T00:06:54.356Z,3.63
2023-02-26T00:09:27.677Z,3.77
2023-02-26T00:11:56.489Z,4.37
2023-02-26T00:14:25.833Z,4.70
2023-02-26T00:16:57.748Z,3.87
2023-02-26T00:19:26.325Z,3.93
2023-02-26T00:21:56.488Z,5.57
2023-02-26T00:24:24.875Z,7.73
2023-02-26T00:26:54.199Z,7.97
2023-02-26T00:29:22.942Z,7.77
2023-02-26T00:31:51.773Z,8.17
2023-02-26T00:34:20.679Z,7.50
2023-02-26T00:36:52.583Z,6.33
2023-02-26T00:39:33.527Z,7.20
2023-02-26T00:42:02.328Z,4.30
2023-02-26T00:44:31.091Z,5.83
2023-02-26T00:47:02.867Z,5.07
2023-02-26T00:49:41.449Z,5.73
2023-02-26T00:52:15.216Z,5.30
2023-02-26T00:54:45.011Z,5.53
2023-02-26T00:57:13.397Z,4.33
2023-02-26T00:59:41.798Z,5.80
2023-02-26T01:02:10.219Z,5.63
2023-02-26T01:04:39.094Z,4.93
2023-02-26T01:07:09.141Z,3.90
2023-02-26T01:09:38.493Z,4.23
2023-02-26T01:12:09.537Z,4.87
2023-02-26T01:14:38.262Z,5.63
2023-02-26T01:17:10.190Z,4.87
2023-02-26T01:19:43.367Z,4.93
2023-02-26T01:22:15.179Z,5.13
2023-02-26T01:24:44.082Z,4.67
2023-02-26T01:27:14.423Z,6.03
2023-02-26T01:29:42.976Z,4.70
2023-02-26T01:32:18.024Z,6.13
2023-02-26T01:34:49.233Z,6.83
2023-02-26T01:37:23.511Z,4.13
2023-02-26T01:39:59.825Z,6.20
2023-02-26T01:42:31.127Z,6.83
2023-02-26T01:45:02.637Z,9.67
2023-02-26T01:47:34.555Z,10.30
2023-02-26T01:50:08.435Z,8.27
2023-02-26T01:53:06.820Z,7.90
2023-02-26T01:55:35.273Z,5.20
2023-02-26T01:58:05.946Z,4.60
2023-02-26T02:00:34.329Z,4.70
2023-02-26T02:03:03.120Z,3.07
2023-02-26T02:05:33.612Z,4.17
2023-02-26T02:08:02.321Z,2.97
2023-02-26T02:10:31.040Z,2.50
2023-02-26T02:13:04.989Z,3.13
2023-02-26T02:15:39.948Z,2.77
2023-02-26T02:18:13.721Z,2.57
2023-02-26T02:20:56.993Z,2.63
2023-02-26T02:23:29.861Z,3.60
2023-02-26T02:26:16.173Z,3.40
2023-02-26T02:28:52.421Z,2.63
2023-02-26T02:31:24.438Z,3.00
2023-02-26T02:33:54.845Z,3.57
2023-02-26T02:36:26.133Z,4.53
2023-02-26T02:38:56.564Z,6.20
2023-02-26T02:41:27.346Z,5.13
2023-02-26T02:43:56.874Z,6.57
2023-02-26T02:46:28.435Z,7.13
2023-02-26T02:49:00.921Z,5.57
2023-02-26T02:51:32.813Z,5.13
2023-02-26T02:54:03.539Z,5.83
2023-02-26T02:56:35.583Z,4.97
2023-02-26T02:59:06.316Z,4.70
2023-02-26T03:01:37.280Z,3.73
2023-02-26T03:04:08.345Z,5.73
2023-02-26T03:06:37.043Z,4.63
2023-02-26T03:09:06.349Z,4.10
2023-02-26T03:11:34.857Z,4.73
2023-02-26T03:14:03.645Z,2.97
2023-02-26T03:16:40.840Z,2.50
2023-02-26T03:19:12.156Z,2.73
2023-02-26T03:21:45.165Z,5.07
2023-02-26T03:24:17.198Z,6.13
2023-02-26T03:26:46.785Z,5.13
2023-02-26T03:29:17.922Z,4.80
2023-02-26T03:31:51.744Z,5.40
2023-02-26T03:34:23.854Z,4.03
2023-02-26T03:36:55.436Z,4.70
2023-02-26T03:39:27.418Z,3.40
2023-02-26T03:41:58.912Z,3.70
2023-02-26T03:44:29.082Z,3.93
2023-02-26T03:47:01.487Z,5.10
2023-02-26T03:49:33.062Z,4.47
2023-02-26T03:52:01.796Z,4.67
2023-02-26T03:54:32.942Z,3.60
2023-02-26T03:57:01.692Z,2.53
2023-02-26T03:59:30.153Z,2.50
2023-02-26T04:02:01.394Z,2.63
2023-02-26T04:04:32.174Z,2.50
2023-02-26T04:07:01.016Z,1.97
2023-02-26T04:09:29.472Z,2.00
2023-02-26T04:11:59.012Z,1.67
2023-02-26T04:14:27.431Z,1.40
2023-02-26T04:16:55.869Z,1.40
2023-02-26T04:19:25.698Z,1.57
2023-02-26T04:21:54.122Z,1.47
2023-02-26T04:24:22.824Z,1.30
2023-02-26T04:26:51.300Z,1.40
2023-02-26T04:29:19.673Z,1.07
2023-02-26T04:31:48.216Z,1.10
2023-02-26T04:34:16.668Z,1.20
2023-02-26T04:36:46.429Z,1.37
2023-02-26T04:39:14.933Z,1.00
2023-02-26T04:41:43.358Z,1.10
2023-02-26T04:44:11.878Z,1.17
2023-02-26T04:46:40.437Z,1.33
2023-02-26T04:49:08.905Z,1.10
2023-02-26T04:51:37.305Z,1.10
2023-02-26T04:54:07.430Z,1.10
2023-02-26T04:56:35.878Z,1.20
2023-02-26T04:59:04.267Z,1.20
2023-02-26T05:01:32.843Z,1.20
2023-02-26T05:04:01.328Z,1.20
2023-02-26T05:06:29.725Z,1.20
2023-02-26T05:08:58.110Z,1.20
2023-02-26T05:11:27.902Z,1.20
2023-02-26T05:13:56.307Z,1.40
2023-02-26T05:16:25.135Z,1.40
2023-02-26T05:18:53.746Z,1.40
2023-02-26T05:21:23.451Z,1.40
2023-02-26T05:23:53.614Z,1.30
2023-02-26T05:26:23.058Z,1.27
2023-02-26T05:28:52.998Z,1.20
2023-02-26T05:31:21.675Z,1.07
2023-02-26T05:33:50.069Z,1.23
2023-02-26T05:36:18.468Z,1.20
2023-02-26T05:38:46.866Z,1.20
2023-02-26T05:41:15.308Z,1.20
2023-02-26T05:43:43.716Z,1.20
2023-02-26T05:46:14.151Z,1.20
2023-02-26T05:48:45.417Z,1.20
2023-02-26T05:51:14.279Z,1.20
2023-02-26T05:53:42.725Z,1.23
2023-02-26T05:56:11.113Z,1.23
2023-02-26T05:58:39.636Z,1.20
2023-02-26T06:01:08.262Z,1.30
2023-02-26T06:03:40.282Z,1.20
2023-02-26T06:06:09.508Z,1.17
2023-02-26T06:08:38.477Z,1.30
2023-02-26T06:11:07.049Z,1.17
2023-02-26T06:13:35.781Z,1.30
2023-02-26T06:16:04.706Z,1.20
2023-02-26T06:18:33.813Z,1.20
2023-02-26T06:21:03.701Z,1.20
2023-02-26T06:23:32.243Z,1.40
2023-02-26T06:26:00.908Z,1.30
2023-02-26T06:28:29.330Z,1.40
2023-02-26T06:30:57.870Z,1.60
2023-02-26T06:33:26.633Z,1.60
2023-02-26T06:35:56.107Z,2.53
2023-02-26T06:38:25.896Z,2.07
2023-02-26T06:40:54.344Z,1.60
2023-02-26T06:43:22.794Z,1.57
2023-02-26T06:45:51.569Z,1.30
2023-02-26T06:48:20.027Z,1.23
2023-02-26T06:50:48.440Z,1.60
2023-02-26T06:53:16.804Z,1.40
2023-02-26T06:55:47.827Z,1.80
2023-02-26T06:58:16.220Z,1.60
2023-02-26T07:00:44.780Z,1.93
2023-02-26T07:03:14.238Z,1.30
2023-02-26T07:05:42.929Z,1.40
2023-02-26T07:08:11.596Z,1.10
2023-02-26T07:10:40.241Z,1.10
2023-02-26T07:13:10.376Z,1.17
2023-02-26T07:15:38.763Z,1.10
2023-02-26T07:18:07.192Z,1.20
2023-02-26T07:20:35.757Z,1.20
2023-02-26T07:23:04.430Z,1.20
2023-02-26T07:25:32.911Z,1.30
2023-02-26T07:28:01.366Z,1.30
2023-02-26T07:30:31.171Z,1.20
2023-02-26T07:32:59.658Z,1.23
2023-02-26T07:35:28.152Z,1.40
2023-02-26T07:37:56.563Z,1.50
2023-02-26T07:40:24.952Z,1.33
2023-02-26T07:42:53.364Z,1.90
2023-02-26T07:45:22.610Z,1.73
2023-02-26T07:47:52.758Z,2.03
2023-02-26T07:50:21.502Z,2.07
2023-02-26T07:52:49.894Z,2.20
2023-02-26T07:55:18.398Z,2.97
2023-02-26T07:57:46.860Z,1.60
2023-02-26T08:00:16.613Z,1.90
2023-02-26T08:02:45.011Z,3.60
2023-02-26T08:05:14.795Z,2.90
2023-02-26T08:07:43.190Z,4.03
2023-02-26T08:10:12.316Z,4.17
2023-02-26T08:12:40.767Z,3.23
2023-02-26T08:15:09.557Z,4.90
2023-02-26T08:17:37.969Z,3.63
2023-02-26T08:20:07.028Z,4.27
2023-02-26T08:22:36.812Z,3.93
2023-02-26T08:25:05.697Z,2.63
2023-02-26T08:27:34.131Z,2.90
2023-02-26T08:30:02.498Z,2.90
2023-02-26T08:32:31.177Z,3.40
2023-02-26T08:34:59.600Z,3.47
2023-02-26T08:37:27.975Z,4.47
2023-02-26T08:39:57.729Z,4.07
2023-02-26T08:42:26.129Z,2.60
2023-02-26T08:44:54.517Z,2.80
2023-02-26T08:47:28.824Z,4.37
2023-02-26T08:49:59.067Z,5.13
2023-02-26T08:52:27.834Z,4.10
2023-02-26T08:54:56.594Z,3.67
2023-02-26T08:57:26.416Z,3.73
2023-02-26T08:59:54.831Z,3.97
2023-02-26T09:02:23.214Z,4.47
2023-02-26T09:04:51.611Z,3.00
2023-02-26T09:07:20.059Z,3.03
2023-02-26T09:09:48.446Z,3.03
2023-02-26T09:12:17.261Z,3.47
2023-02-26T09:14:47.163Z,4.10
2023-02-26T09:17:15.581Z,7.80
2023-02-26T09:19:44.030Z,6.23
2023-02-26T09:22:12.497Z,4.93
2023-02-26T09:24:41.964Z,6.97
2023-02-26T09:27:10.740Z,6.87
2023-02-26T09:29:39.161Z,8.17
2023-02-26T09:32:09.245Z,4.50
2023-02-26T09:34:37.789Z,5.00
2023-02-26T09:37:06.710Z,4.50
2023-02-26T09:39:35.941Z,5.13
2023-02-26T09:42:08.242Z,5.33
2023-02-26T09:44:38.870Z,4.10
2023-02-26T09:47:11.329Z,3.97
2023-02-26T09:49:46.808Z,5.17
2023-02-26T09:52:20.297Z,4.73
2023-02-26T09:54:49.651Z,6.20
2023-02-26T09:57:23.803Z,5.90
2023-02-26T09:59:53.161Z,4.97
2023-02-26T10:02:26.255Z,6.13
2023-02-26T10:04:58.975Z,5.30
2023-02-26T10:07:32.404Z,6.60
2023-02-26T10:10:04.959Z,5.63
2023-02-26T10:12:37.051Z,4.50
2023-02-26T10:15:09.589Z,4.57
2023-02-26T10:17:45.333Z,4.87
2023-02-26T10:20:16.471Z,6.00
2023-02-26T10:22:48.618Z,6.37
2023-02-26T10:25:20.153Z,5.63
2023-02-26T10:27:54.832Z,7.10
2023-02-26T10:30:26.990Z,5.10
2023-02-26T10:33:01.709Z,4.00
2023-02-26T10:35:34.999Z,4.77
2023-02-26T10:38:05.637Z,2.80
2023-02-26T10:40:39.349Z,6.07
2023-02-26T10:43:12.090Z,4.93
2023-02-26T10:45:45.017Z,5.43
2023-02-26T10:48:20.399Z,5.10
2023-02-26T10:50:50.987Z,5.27
2023-02-26T10:53:19.530Z,8.20
2023-02-26T10:55:49.220Z,4.10
2023-02-26T10:58:18.699Z,5.00
2023-02-26T11:00:48.922Z,5.67
2023-02-26T11:03:20.061Z,5.00
2023-02-26T11:05:49.256Z,5.23
2023-02-26T11:08:20.013Z,5.33
2023-02-26T11:10:50.669Z,6.30
2023-02-26T11:13:19.123Z,6.13
2023-02-26T11:15:49.244Z,6.33
2023-02-26T11:18:21.383Z,4.30
2023-02-26T11:20:50.751Z,5.53
2023-02-26T11:23:21.678Z,3.63
2023-02-26T11:25:54.311Z,4.67
2023-02-26T11:28:24.152Z,4.40
2023-02-26T11:30:54.545Z,4.37
2023-02-26T11:33:30.920Z,3.37
2023-02-26T11:36:01.321Z,5.43
2023-02-26T11:38:30.229Z,4.77
2023-02-26T11:40:59.765Z,6.47
2023-02-26T11:43:29.122Z,6.73
2023-02-26T11:46:01.475Z,5.67
2023-02-26T11:48:39.432Z,4.63
2023-02-26T11:51:09.186Z,4.53
2023-02-26T11:53:38.917Z,4.13
2023-02-26T11:56:11.121Z,5.50
2023-02-26T11:58:40.832Z,8.27
2023-02-26T12:01:10.181Z,6.10
2023-02-26T12:03:41.428Z,5.83
2023-02-26T12:06:16.470Z,5.33
2023-02-26T12:08:44.903Z,5.70
2023-02-26T12:11:18.427Z,7.33
2023-02-26T12:13:55.393Z,6.10
2023-02-26T12:16:27.396Z,7.93
2023-02-26T12:19:04.103Z,5.80
2023-02-26T12:21:50.312Z,5.67
2023-02-26T12:24:27.957Z,5.90
2023-02-26T12:26:59.956Z,6.80
2023-02-26T12:29:33.250Z,4.80
2023-02-26T12:32:16.619Z,6.50
2023-02-26T12:35:00.051Z,6.07
2023-02-26T12:37:37.620Z,6.63
2023-02-26T12:40:11.977Z,6.67
2023-02-26T12:42:44.459Z,5.93
2023-02-26T12:45:22.762Z,5.47
2023-02-26T12:47:56.284Z,5.60
2023-02-26T12:50:34.860Z,5.93
2023-02-26T12:53:14.422Z,7.50
2023-02-26T12:55:48.208Z,6.90
2023-02-26T12:58:28.009Z,5.67
2023-02-26T13:01:24.101Z,6.63
2023-02-26T13:04:11.388Z,5.10
2023-02-26T13:06:50.244Z,5.20
2023-02-26T13:09:26.477Z,4.23
2023-02-26T13:12:02.958Z,4.57
2023-02-26T13:14:37.390Z,5.53
2023-02-26T13:17:08.984Z,6.93
2023-02-26T13:19:43.223Z,9.43
2023-02-26T13:22:17.322Z,7.03
2023-02-26T13:24:49.294Z,5.97
2023-02-26T13:27:18.888Z,5.00
2023-02-26T13:29:49.548Z,6.10
2023-02-26T13:32:19.806Z,7.20
2023-02-26T13:34:52.272Z,4.90
2023-02-26T13:37:25.316Z,6.53
2023-02-26T13:39:58.927Z,4.90
2023-02-26T13:42:31.927Z,5.40
2023-02-26T13:45:19.952Z,4.20
2023-02-26T13:48:00.531Z,5.47
2023-02-26T13:50:31.341Z,5.20
2023-02-26T13:53:04.258Z,4.63
2023-02-26T13:55:42.947Z,5.27
2023-02-26T13:58:29.229Z,8.07
2023-02-26T14:01:02.414Z,5.50
2023-02-26T14:03:35.391Z,5.07
2023-02-26T14:06:11.804Z,5.17
2023-02-26T14:08:48.452Z,5.70
2023-02-26T14:11:29.170Z,6.03
2023-02-26T14:14:27.937Z,5.50
2023-02-26T14:16:57.271Z,5.30
2023-02-26T14:19:29.409Z,6.50
2023-02-26T14:21:59.035Z,4.50
2023-02-26T14:24:36.539Z,5.07
2023-02-26T14:27:26.410Z,5.13
2023-02-26T14:30:02.200Z,5.70
2023-02-26T14:32:32.448Z,4.90
2023-02-26T14:35:05.304Z,5.13
2023-02-26T14:37:37.292Z,5.33
2023-02-26T14:40:09.264Z,5.07
2023-02-26T14:42:40.852Z,6.10
2023-02-26T14:45:12.631Z,4.27
2023-02-26T14:47:41.472Z,4.97
2023-02-26T14:50:10.546Z,5.13
2023-02-26T14:52:48.327Z,4.63
2023-02-26T14:55:40.843Z,4.97
2023-02-26T14:58:16.449Z,3.93
2023-02-26T15:00:49.650Z,4.40
2023-02-26T15:03:26.130Z,5.00
2023-02-26T15:06:01.816Z,4.37
2023-02-26T15:08:51.748Z,5.03
2023-02-26T15:11:27.973Z,5.10
2023-02-26T15:14:11.583Z,5.20
2023-02-26T15:16:46.279Z,3.70
2023-02-26T15:19:24.682Z,4.67
2023-02-26T15:22:00.725Z,4.23
2023-02-26T15:24:31.296Z,4.80
2023-02-26T15:27:02.305Z,4.87
2023-02-26T15:29:33.495Z,5.27
2023-02-26T15:32:06.901Z,5.57
2023-02-26T15:34:35.373Z,4.10
2023-02-26T15:37:04.039Z,4.53
2023-02-26T15:39:32.470Z,5.90
2023-02-26T15:42:02.208Z,4.47
2023-02-26T15:44:32.764Z,4.47
2023-02-26T15:47:01.780Z,4.10
2023-02-26T15:49:31.177Z,3.53
2023-02-26T15:52:00.139Z,4.80
2023-02-26T15:54:31.691Z,6.03
2023-02-26T15:57:00.152Z,7.23
2023-02-26T15:59:29.727Z,5.50
2023-02-26T16:01:59.540Z,5.57
2023-02-26T16:04:27.954Z,4.63
2023-02-26T16:06:57.051Z,3.83
2023-02-26T16:09:27.878Z,3.73
2023-02-26T16:11:57.037Z,4.03
2023-02-26T16:14:30.068Z,5.03
2023-02-26T16:17:00.199Z,3.80
2023-02-26T16:19:33.899Z,4.30
2023-02-26T16:22:04.200Z,3.90
2023-02-26T16:24:33.082Z,3.27
2023-02-26T16:27:04.805Z,3.13
2023-02-26T16:29:34.521Z,4.93
2023-02-26T16:32:05.434Z,4.80
2023-02-26T16:34:37.757Z,4.40
2023-02-26T16:37:13.384Z,6.07
2023-02-26T16:39:46.311Z,3.73
2023-02-26T16:42:17.377Z,2.87
2023-02-26T16:44:48.615Z,3.63
2023-02-26T16:47:18.860Z,4.03
2023-02-26T16:49:47.395Z,3.43
2023-02-26T16:52:18.282Z,3.47
2023-02-26T16:54:50.943Z,3.30
2023-02-26T16:57:20.649Z,2.70
2023-02-26T16:59:51.488Z,2.80
2023-02-26T17:02:23.240Z,2.77
2023-02-26T17:04:54.089Z,2.80
2023-02-26T17:07:27.357Z,2.43
2023-02-26T17:09:58.892Z,3.07
2023-02-26T17:12:45.644Z,2.33
2023-02-26T17:15:18.061Z,3.47
2023-02-26T17:17:47.970Z,2.60
2023-02-26T17:20:16.812Z,3.30
2023-02-26T17:22:46.104Z,3.10
2023-02-26T17:25:19.128Z,3.10
2023-02-26T17:27:47.789Z,3.00
2023-02-26T17:30:17.879Z,3.30
2023-02-26T17:32:47.715Z,2.87
2023-02-26T17:35:16.581Z,3.20
2023-02-26T17:37:46.839Z,2.80
2023-02-26T17:40:19.816Z,2.77
2023-02-26T17:42:48.502Z,2.97
2023-02-26T17:45:16.910Z,3.40
2023-02-26T17:47:47.545Z,3.70
2023-02-26T17:50:22.187Z,4.10
2023-02-26T17:52:50.613Z,4.03
2023-02-26T17:55:19.012Z,3.93
2023-02-26T17:57:47.663Z,4.60
2023-02-26T18:00:17.529Z,4.50
2023-02-26T18:02:45.910Z,3.83
2023-02-26T18:05:14.761Z,3.87
2023-02-26T18:07:45.874Z,4.03
2023-02-26T18:10:18.754Z,3.60
2023-02-26T18:12:47.227Z,4.10
2023-02-26T18:15:15.846Z,3.93
2023-02-26T18:17:44.608Z,4.57
2023-02-26T18:20:17.760Z,5.40
2023-02-26T18:22:48.167Z,4.37
2023-02-26T18:25:16.775Z,3.60
2023-02-26T18:27:45.386Z,3.60
2023-02-26T18:30:22.358Z,3.63
2023-02-26T18:32:50.970Z,3.67
2023-02-26T18:35:19.440Z,4.67
2023-02-26T18:37:50.333Z,4.50
2023-02-26T18:40:22.039Z,5.10
2023-02-26T18:42:50.669Z,3.50
2023-02-26T18:45:19.514Z,3.37
2023-02-26T18:47:48.552Z,3.40
2023-02-26T18:50:18.013Z,3.03
2023-02-26T18:52:46.475Z,3.07
2023-02-26T18:55:16.643Z,3.47
2023-02-26T18:57:45.058Z,3.17
2023-02-26T19:00:14.813Z,3.83
2023-02-26T19:02:44.446Z,3.47
2023-02-26T19:05:13.636Z,3.00
2023-02-26T19:07:42.796Z,2.97
2023-02-26T19:10:14.670Z,2.77
2023-02-26T19:12:44.964Z,3.67
2023-02-26T19:15:14.193Z,3.20
2023-02-26T19:17:42.800Z,3.20
2023-02-26T19:20:11.892Z,4.17
2023-02-26T19:22:40.444Z,4.07
2023-02-26T19:25:09.685Z,3.67
2023-02-26T19:27:38.961Z,5.00
2023-02-26T19:30:09.620Z,5.10
2023-02-26T19:32:38.181Z,4.53
2023-02-26T19:35:07.843Z,4.57
2023-02-26T19:37:36.508Z,4.33
2023-02-26T19:40:08.573Z,4.13
2023-02-26T19:42:36.988Z,4.43
2023-02-26T19:45:05.711Z,3.83
2023-02-26T19:47:35.538Z,3.97
2023-02-26T19:50:04.074Z,4.80
2023-02-26T19:52:33.876Z,4.30
2023-02-26T19:55:02.546Z,4.50
2023-02-26T19:57:31.043Z,4.60
2023-02-26T20:00:00.235Z,4.53
2023-02-26T20:02:28.725Z,4.30
2023-02-26T20:04:58.578Z,3.97
2023-02-26T20:07:27.321Z,5.30
2023-02-26T20:09:55.706Z,4.03
2023-02-26T20:12:24.089Z,5.30
2023-02-26T20:14:52.571Z,4.37
2023-02-26T20:17:21.009Z,6.67
2023-02-26T20:19:49.402Z,4.53
2023-02-26T20:22:21.279Z,4.33
2023-02-26T20:24:50.092Z,5.93
2023-02-26T20:27:19.491Z,4.20
2023-02-26T20:29:47.957Z,4.03
2023-02-26T20:32:16.471Z,4.87
2023-02-26T20:34:44.968Z,4.17
2023-02-26T20:37:13.412Z,4.20
2023-02-26T20:39:43.179Z,3.90
2023-02-26T20:42:11.608Z,3.33
2023-02-26T20:44:40.028Z,5.03
2023-02-26T20:47:08.421Z,3.13
2023-02-26T20:49:36.849Z,4.60
2023-02-26T20:52:05.436Z,4.63
2023-02-26T20:54:33.870Z,5.93
2023-02-26T20:57:03.696Z,4.23
2023-02-26T20:59:32.412Z,3.83
2023-02-26T21:02:00.860Z,2.83
2023-02-26T21:04:30.687Z,2.90
2023-02-26T21:07:12.623Z,3.00
2023-02-26T21:09:41.173Z,4.13
2023-02-26T21:12:10.972Z,3.30
2023-02-26T21:14:39.409Z,4.10
2023-02-26T21:17:08.077Z,4.13
2023-02-26T21:19:36.795Z,4.63
2023-02-26T21:22:05.381Z,3.70
2023-02-26T21:24:34.099Z,3.10
2023-02-26T21:27:03.067Z,3.33
2023-02-26T21:29:33.283Z,4.27
2023-02-26T21:32:03.604Z,4.80
2023-02-26T21:34:34.336Z,4.10
2023-02-26T21:37:03.011Z,3.67
2023-02-26T21:39:32.413Z,3.73
2023-02-26T21:42:03.343Z,3.00
2023-02-26T21:44:33.916Z,2.53
2023-02-26T21:47:02.990Z,2.43
2023-02-26T21:49:32.174Z,3.10
2023-02-26T21:52:01.021Z,2.87
2023-02-26T21:54:29.557Z,2.70
2023-02-26T21:56:58.096Z,3.33
2023-02-26T21:59:26.592Z,3.73
2023-02-26T22:01:56.384Z,2.70
2023-02-26T22:04:24.884Z,2.70
2023-02-26T22:06:53.328Z,3.10
2023-02-26T22:09:21.986Z,2.63
2023-02-26T22:11:50.484Z,3.47
2023-02-26T22:14:18.879Z,3.40
2023-02-26T22:16:47.402Z,3.07
2023-02-26T22:19:17.233Z,2.67
2023-02-26T22:21:45.649Z,2.57
2023-02-26T22:24:14.310Z,2.67
2023-02-26T22:26:44.603Z,3.00
2023-02-26T22:29:13.608Z,2.57
2023-02-26T22:31:42.017Z,2.60
2023-02-26T22:34:10.469Z,2.97
2023-02-26T22:36:40.225Z,3.27
2023-02-26T22:39:08.644Z,2.23
2023-02-26T22:41:37.439Z,2.50
2023-02-26T22:44:06.527Z,2.30
2023-02-26T22:46:34.916Z,2.33
2023-02-26T22:49:03.359Z,2.50
2023-02-26T22:51:33.018Z,2.50
2023-02-26T22:54:02.998Z,2.47
2023-02-26T22:56:31.436Z,2.50
2023-02-26T22:58:59.896Z,2.77
2023-02-26T23:01:29.830Z,3.67
2023-02-26T23:03:59.492Z,2.77
2023-02-26T23:06:28.127Z,2.90
2023-02-26T23:08:56.508Z,2.17
2023-02-26T23:11:26.957Z,2.67
2023-02-26T23:13:55.548Z,2.23
2023-02-26T23:16:23.983Z,2.97
2023-02-26T23:18:52.413Z,2.40
2023-02-26T23:21:20.985Z,2.60
2023-02-26T23:23:49.578Z,2.53
2023-02-26T23:26:18.414Z,2.40
2023-02-26T23:28:48.205Z,2.33
2023-02-26T23:31:16.682Z,2.87
2023-02-26T23:33:45.239Z,2.33
2023-02-26T23:36:13.602Z,2.67
2023-02-26T23:38:42.140Z,2.50
2023-02-26T23:41:10.584Z,2.40
2023-02-26T23:43:38.967Z,2.50
2023-02-26T23:46:09.143Z,2.33
2023-02-26T23:48:37.578Z,2.50
2023-02-26T23:51:06.241Z,2.70
2023-02-26T23:53:34.748Z,2.20
2023-02-26T23:56:03.162Z,2.60
2023-02-26T23:58:32.030Z,2.40
